sensor_id;sensor_type;location;lat;lon;timestamp;pressure;altitude;pressure_sealevel;temperature;humidity
29315;BME280;16320;53.954;9.506;2023-03-08T00:01:30;99481.31;;;0.08;100.00
29315;BME280;16320;53.954;9.506;2023-03-08T00:04:34;99482.16;;;0.09;100.00
29315;BME280;16320;53.954;9.506;2023-03-08T00:07:38;99497.50;;;0.13;100.00
29315;BME280;16320;53.954;9.506;2023-03-08T00:10:44;99493.06;;;0.18;100.00
29315;BME280;16320;53.954;9.506;2023-03-08T00:13:48;99487.03;;;0.20;100.00
29315;BME280;16320;53.954;9.506;2023-03-08T00:16:52;99495.56;;;0.22;100.00
29315;BME280;16320;53.954;9.506;2023-03-08T00:19:56;99491.34;;;0.17;100.00
29315;BME280;16320;53.954;9.506;2023-03-08T00:23:01;99496.47;;;0.19;100.00
29315;BME280;16320;53.954;9.506;2023-03-08T00:26:06;99490.47;;;0.18;100.00
29315;BME280;16320;53.954;9.506;2023-03-08T00:29:11;99501.53;;;0.24;100.00
29315;BME280;16320;53.954;9.506;2023-03-08T00:32:15;99512.72;;;0.23;100.00
29315;BME280;16320;53.954;9.506;2023-03-08T00:35:19;99509.41;;;0.19;100.00
29315;BME280;16320;53.954;9.506;2023-03-08T00:38:24;99514.50;;;0.21;100.00
29315;BME280;16320;53.954;9.506;2023-03-08T00:41:28;99514.50;;;0.21;100.00
29315;BME280;16320;53.954;9.506;2023-03-08T00:44:33;99508.44;;;0.23;100.00
29315;BME280;16320;53.954;9.506;2023-03-08T00:47:37;99513.63;;;0.22;100.00
29315;BME280;16320;53.954;9.506;2023-03-08T00:50:43;99516.22;;;0.22;100.00
29315;BME280;16320;53.954;9.506;2023-03-08T00:53:48;99517.13;;;0.19;100.00
29315;BME280;16320;53.954;9.506;2023-03-08T00:56:52;99521.44;;;0.20;100.00
29315;BME280;16320;53.954;9.506;2023-03-08T00:59:56;99511.06;;;0.22;100.00
29315;BME280;16320;53.954;9.506;2023-03-08T01:03:01;99521.28;;;0.25;100.00
29315;BME280;16320;53.954;9.506;2023-03-08T01:06:09;99517.88;;;0.23;100.00
29315;BME280;16320;53.954;9.506;2023-03-08T01:09:14;99511.06;;;0.22;100.00
29315;BME280;16320;53.954;9.506;2023-03-08T01:12:19;99530.09;;;0.17;100.00
29315;BME280;16320;53.954;9.506;2023-03-08T01:15:25;99525.88;;;0.15;100.00
29315;BME280;16320;53.954;9.506;2023-03-08T01:18:30;99523.28;;;0.15;100.00
29315;BME280;16320;53.954;9.506;2023-03-08T01:21:34;99521.50;;;0.17;100.00
29315;BME280;16320;53.954;9.506;2023-03-08T01:24:43;99516.38;;;0.15;100.00
29315;BME280;16320;53.954;9.506;2023-03-08T01:27:47;99517.13;;;0.19;100.00
29315;BME280;16320;53.954;9.506;2023-03-08T01:30:52;99511.06;;;0.22;100.00
29315;BME280;16320;53.954;9.506;2023-03-08T01:33:57;99514.34;;;0.27;100.00
29315;BME280;16320;53.954;9.506;2023-03-08T01:37:02;99508.25;;;0.29;100.00
29315;BME280;16320;53.954;9.506;2023-03-08T01:40:08;99509.09;;;0.30;100.00
29315;BME280;16320;53.954;9.506;2023-03-08T01:43:26;99519.44;;;0.30;100.00
29315;BME280;16320;53.954;9.506;2023-03-08T01:49:36;99521.75;;;0.39;100.00
29315;BME280;16320;53.954;9.506;2023-03-08T01:52:45;99532.13;;;0.38;100.00
29315;BME280;16320;53.954;9.506;2023-03-08T01:55:51;99527.50;;;0.17;100.00
29315;BME280;16320;53.954;9.506;2023-03-08T01:58:56;99521.56;;;0.15;100.00
29315;BME280;16320;53.954;9.506;2023-03-08T02:02:02;99521.50;;;0.17;100.00
29315;BME280;16320;53.954;9.506;2023-03-08T02:05:08;99523.34;;;0.13;100.00
29315;BME280;16320;53.954;9.506;2023-03-08T02:08:13;99521.03;;;0.03;100.00
29315;BME280;16320;53.954;9.506;2023-03-08T02:11:20;99528.03;;;-0.01;100.00
29315;BME280;16320;53.954;9.506;2023-03-08T02:14:26;99522.88;;;-0.01;100.00
29315;BME280;16320;53.954;9.506;2023-03-08T02:17:33;99534.16;;;-0.05;100.00
29315;BME280;16320;53.954;9.506;2023-03-08T02:20:41;99532.47;;;-0.06;100.00
29315;BME280;16320;53.954;9.506;2023-03-08T02:23:45;99517.16;;;-0.12;100.00
29315;BME280;16320;53.954;9.506;2023-03-08T02:27:04;99517.31;;;-0.19;100.00
29315;BME280;16320;53.954;9.506;2023-03-08T02:30:12;99528.28;;;-0.10;100.00
29315;BME280;16320;53.954;9.506;2023-03-08T02:33:17;99522.22;;;-0.09;100.00
29315;BME280;16320;53.954;9.506;2023-03-08T02:36:21;99523.81;;;-0.05;100.00
29315;BME280;16320;53.954;9.506;2023-03-08T02:39:26;99518.50;;;0.01;100.00
29315;BME280;16320;53.954;9.506;2023-03-08T02:42:30;99513.22;;;0.06;100.00
29315;BME280;16320;53.954;9.506;2023-03-08T02:45:35;99501.94;;;0.10;100.00
29315;BME280;16320;53.954;9.506;2023-03-08T02:48:39;99504.44;;;0.11;100.00
29315;BME280;16320;53.954;9.506;2023-03-08T02:51:44;99500.97;;;0.12;100.00
29315;BME280;16320;53.954;9.506;2023-03-08T02:54:48;99511.38;;;0.09;100.00
29315;BME280;16320;53.954;9.506;2023-03-08T02:57:53;99503.59;;;0.11;100.00
29315;BME280;16320;53.954;9.506;2023-03-08T03:00:57;99501.84;;;0.11;100.00
29315;BME280;16320;53.954;9.506;2023-03-08T03:04:01;99499.22;;;0.13;100.00
29315;BME280;16320;53.954;9.506;2023-03-08T03:07:06;99496.75;;;0.10;100.00
29315;BME280;16320;53.954;9.506;2023-03-08T03:10:12;99493.28;;;0.11;100.00
29315;BME280;16320;53.954;9.506;2023-03-08T03:13:16;99491.41;;;0.16;100.00
29315;BME280;16320;53.954;9.506;2023-03-08T03:16:20;99501.72;;;0.16;100.00
29315;BME280;16320;53.954;9.506;2023-03-08T03:19:25;99499.03;;;0.21;100.00
29315;BME280;16320;53.954;9.506;2023-03-08T03:22:29;99495.56;;;0.22;100.00
29315;BME280;16320;53.954;9.506;2023-03-08T03:25:36;99494.81;;;0.18;100.00
29315;BME280;16320;53.954;9.506;2023-03-08T03:28:41;99499.22;;;0.13;100.00
29315;BME280;16320;53.954;9.506;2023-03-08T03:31:46;99501.06;;;0.09;100.00
29315;BME280;16320;53.954;9.506;2023-03-08T03:34:51;99507.31;;;0.02;100.00
29315;BME280;16320;53.954;9.506;2023-03-08T03:37:56;99503.84;;;0.02;100.00
29315;BME280;16320;53.954;9.506;2023-03-08T03:41:06;99514.13;;;0.03;100.00
29315;BME280;16320;53.954;9.506;2023-03-08T03:44:11;99515.03;;;0.02;100.00
29315;BME280;16320;53.954;9.506;2023-03-08T03:47:15;99527.94;;;0.02;100.00
29315;BME280;16320;53.954;9.506;2023-03-08T03:50:20;99526.22;;;0.03;100.00
29315;BME280;16320;53.954;9.506;2023-03-08T03:53:27;99532.13;;;0.06;100.00
29315;BME280;16320;53.954;9.506;2023-03-08T03:56:32;99531.38;;;0.03;100.00
29315;BME280;16320;53.954;9.506;2023-03-08T03:59:37;99535.63;;;0.05;100.00
29315;BME280;16320;53.954;9.506;2023-03-08T04:02:41;99539.16;;;0.01;100.00
29315;BME280;16320;53.954;9.506;2023-03-08T04:05:46;99540.91;;;0.01;100.00
29315;BME280;16320;53.954;9.506;2023-03-08T04:08:56;99533.22;;;-0.03;100.00
29315;BME280;16320;53.954;9.506;2023-03-08T04:12:01;99541.09;;;-0.07;100.00
29315;BME280;16320;53.954;9.506;2023-03-08T04:15:08;99539.59;;;-0.14;100.00
29315;BME280;16320;53.954;9.506;2023-03-08T04:18:12;99531.09;;;-0.20;100.00
29315;BME280;16320;53.954;9.506;2023-03-08T04:21:17;99534.81;;;-0.30;100.00
29315;BME280;16320;53.954;9.506;2023-03-08T04:24:22;99532.34;;;-0.34;100.00
29315;BME280;16320;53.954;9.506;2023-03-08T04:27:26;99529.66;;;-0.30;100.00
29315;BME280;16320;53.954;9.506;2023-03-08T04:30:30;99539.78;;;-0.22;100.00
29315;BME280;16320;53.954;9.506;2023-03-08T04:33:34;99543.16;;;-0.20;100.00
29315;BME280;16320;53.954;9.506;2023-03-08T04:36:39;99548.03;;;-0.09;100.00
29315;BME280;16320;53.954;9.506;2023-03-08T04:39:43;99532.47;;;-0.06;100.00
29315;BME280;16320;53.954;9.506;2023-03-08T04:42:47;99526.28;;;-0.01;100.00
29315;BME280;16320;53.954;9.506;2023-03-08T04:45:51;99513.34;;;0.01;100.00
29315;BME280;16320;53.954;9.506;2023-03-08T04:48:56;99511.66;;;0.00;100.00
29315;BME280;16320;53.954;9.506;2023-03-08T04:52:00;99520.28;;;-0.01;100.00
29315;BME280;16320;53.954;9.506;2023-03-08T04:55:05;99516.91;;;-0.03;100.00
29315;BME280;16320;53.954;9.506;2023-03-08T04:58:10;99516.84;;;0.00;100.00
29315;BME280;16320;53.954;9.506;2023-03-08T05:01:17;99521.03;;;0.03;100.00
29315;BME280;16320;53.954;9.506;2023-03-08T05:04:22;99516.72;;;0.03;100.00
29315;BME280;16320;53.954;9.506;2023-03-08T05:07:27;99535.53;;;0.08;100.00
29315;BME280;16320;53.954;9.506;2023-03-08T05:10:31;99538.91;;;0.10;100.00
29315;BME280;16320;53.954;9.506;2023-03-08T05:13:38;99543.38;;;0.05;100.00
29315;BME280;16320;53.954;9.506;2023-03-08T05:16:42;99548.41;;;0.10;100.00
29315;BME280;16320;53.954;9.506;2023-03-08T05:19:47;99549.28;;;0.09;100.00
29315;BME280;16320;53.954;9.506;2023-03-08T05:22:51;99546.53;;;0.15;100.00
29315;BME280;16320;53.954;9.506;2023-03-08T05:26:04;99548.22;;;0.16;100.00
29315;BME280;16320;53.954;9.506;2023-03-08T05:29:09;99552.63;;;0.12;100.00
29315;BME280;16320;53.954;9.506;2023-03-08T05:32:13;99544.06;;;0.10;100.00
29315;BME280;16320;53.954;9.506;2023-03-08T05:35:17;99544.13;;;0.09;100.00
29315;BME280;16320;53.954;9.506;2023-03-08T05:38:23;99537.38;;;0.03;100.00
29315;BME280;16320;53.954;9.506;2023-03-08T05:41:28;99521.00;;;0.04;100.00
29315;BME280;16320;53.954;9.506;2023-03-08T05:44:32;99554.63;;;0.01;100.00
29315;BME280;16320;53.954;9.506;2023-03-08T05:47:36;99553.88;;;-0.03;100.00
29315;BME280;16320;53.954;9.506;2023-03-08T05:50:40;99553.94;;;-0.04;100.00
29315;BME280;16320;53.954;9.506;2023-03-08T05:53:45;99555.56;;;0.00;100.00
29315;BME280;16320;53.954;9.506;2023-03-08T05:56:49;99553.97;;;-0.06;100.00
29315;BME280;16320;53.954;9.506;2023-03-08T05:59:54;99560.84;;;-0.05;100.00
29315;BME280;16320;53.954;9.506;2023-03-08T06:02:59;99559.97;;;-0.05;100.00
29315;BME280;16320;53.954;9.506;2023-03-08T06:06:07;99559.97;;;-0.05;100.00
29315;BME280;16320;53.954;9.506;2023-03-08T06:09:11;99551.38;;;-0.06;100.00
29315;BME280;16320;53.954;9.506;2023-03-08T06:12:16;99560.03;;;-0.08;100.00
29315;BME280;16320;53.954;9.506;2023-03-08T06:15:21;99553.13;;;-0.06;100.00
29315;BME280;16320;53.954;9.506;2023-03-08T06:18:26;99565.03;;;-0.02;100.00
29315;BME280;16320;53.954;9.506;2023-03-08T06:21:31;99567.59;;;-0.01;100.00
29315;BME280;16320;53.954;9.506;2023-03-08T06:24:35;99558.13;;;0.00;100.00
29315;BME280;16320;53.954;9.506;2023-03-08T06:27:40;99566.69;;;0.02;100.00
29315;BME280;16320;53.954;9.506;2023-03-08T06:30:48;99560.72;;;0.00;100.00
29315;BME280;16320;53.954;9.506;2023-03-08T06:33:53;99570.13;;;0.01;100.00
29315;BME280;16320;53.954;9.506;2023-03-08T06:36:58;99568.34;;;0.03;100.00
29315;BME280;16320;53.954;9.506;2023-03-08T06:40:03;99569.97;;;0.07;100.00
29315;BME280;16320;53.954;9.506;2023-03-08T06:43:08;99568.28;;;0.06;100.00
29315;BME280;16320;53.954;9.506;2023-03-08T06:46:16;99561.25;;;0.11;100.00
29315;BME280;16320;53.954;9.506;2023-03-08T06:49:21;99564.66;;;0.13;100.00
29315;BME280;16320;53.954;9.506;2023-03-08T06:52:25;99568.03;;;0.15;100.00
29315;BME280;16320;53.954;9.506;2023-03-08T06:55:30;99566.31;;;0.14;100.00
29315;BME280;16320;53.954;9.506;2023-03-08T06:58:35;99567.91;;;0.20;100.00
29315;BME280;16320;53.954;9.506;2023-03-08T07:01:40;99578.91;;;0.27;100.00
29315;BME280;16320;53.954;9.506;2023-03-08T07:04:45;99582.41;;;0.24;100.00
29315;BME280;16320;53.954;9.506;2023-03-08T07:07:52;99578.13;;;0.25;100.00
29315;BME280;16320;53.954;9.506;2023-03-08T07:10:57;99575.63;;;0.22;100.00
29315;BME280;16320;53.954;9.506;2023-03-08T07:14:01;99580.75;;;0.23;100.00
29315;BME280;16320;53.954;9.506;2023-03-08T07:17:05;99583.25;;;0.26;100.00
29315;BME280;16320;53.954;9.506;2023-03-08T07:20:12;99569.38;;;0.29;100.00
29315;BME280;16320;53.954;9.506;2023-03-08T07:23:16;99566.78;;;0.29;100.00
29315;BME280;16320;53.954;9.506;2023-03-08T07:26:21;99582.13;;;0.35;100.00
29315;BME280;16320;53.954;9.506;2023-03-08T07:29:25;99578.59;;;0.39;100.00
29315;BME280;16320;53.954;9.506;2023-03-08T07:32:29;99579.28;;;0.44;100.00
29315;BME280;16320;53.954;9.506;2023-03-08T07:35:34;99588.59;;;0.50;100.00
29315;BME280;16320;53.954;9.506;2023-03-08T07:38:43;99579.22;;;0.47;100.00
29315;BME280;16320;53.954;9.506;2023-03-08T07:41:49;99583.50;;;0.47;100.00
29315;BME280;16320;53.954;9.506;2023-03-08T07:44:53;99585.25;;;0.46;100.00
29315;BME280;16320;53.954;9.506;2023-03-08T07:47:58;99580.00;;;0.49;100.00
29315;BME280;16320;53.954;9.506;2023-03-08T07:51:05;99587.72;;;0.51;100.00
29315;BME280;16320;53.954;9.506;2023-03-08T07:54:11;99585.66;;;0.62;100.00
29315;BME280;16320;53.954;9.506;2023-03-08T07:57:15;99583.91;;;0.63;100.00
29315;BME280;16320;53.954;9.506;2023-03-08T08:00:20;99580.16;;;0.73;100.00
29315;BME280;16320;53.954;9.506;2023-03-08T08:03:25;99583.00;;;0.65;100.00
29315;BME280;16320;53.954;9.506;2023-03-08T08:06:29;99586.19;;;0.73;100.00
29315;BME280;16320;53.954;9.506;2023-03-08T08:09:34;99588.75;;;0.75;100.00
29315;BME280;16320;53.954;9.506;2023-03-08T08:12:40;99592.69;;;0.87;100.00
29315;BME280;16320;53.954;9.506;2023-03-08T08:15:44;99577.75;;;0.97;100.00
29315;BME280;16320;53.954;9.506;2023-03-08T08:18:51;99571.69;;;0.98;100.00
29315;BME280;16320;53.954;9.506;2023-03-08T08:21:56;99564.22;;;0.88;100.00
29315;BME280;16320;53.954;9.506;2023-03-08T08:25:06;99564.25;;;0.87;100.00
29315;BME280;16320;53.954;9.506;2023-03-08T08:28:10;99566.09;;;0.83;100.00
29315;BME280;16320;53.954;9.506;2023-03-08T08:31:19;99562.69;;;0.81;100.00
29315;BME280;16320;53.954;9.506;2023-03-08T08:34:24;99562.91;;;0.75;100.00
29315;BME280;16320;53.954;9.506;2023-03-08T08:37:30;99560.44;;;0.70;100.00
29315;BME280;16320;53.954;9.506;2023-03-08T08:40:36;99560.56;;;0.66;100.00
29315;BME280;16320;53.954;9.506;2023-03-08T08:43:41;99560.41;;;0.72;100.00
29315;BME280;16320;53.954;9.506;2023-03-08T08:46:46;99562.69;;;0.81;100.00
29315;BME280;16320;53.954;9.506;2023-03-08T08:49:51;99556.03;;;0.74;100.00
29315;BME280;16320;53.954;9.506;2023-03-08T08:52:55;99555.97;;;0.76;100.00
29315;BME280;16320;53.954;9.506;2023-03-08T08:56:29;99552.72;;;0.69;100.00
29315;BME280;16320;53.954;9.506;2023-03-08T08:59:34;99550.81;;;0.76;100.00
29315;BME280;16320;53.954;9.506;2023-03-08T09:02:38;99539.72;;;0.72;100.00
29315;BME280;16320;53.954;9.506;2023-03-08T09:05:43;99545.78;;;0.71;100.00
29315;BME280;16320;53.954;9.506;2023-03-08T09:08:54;99550.75;;;0.77;100.00
29315;BME280;16320;53.954;9.506;2023-03-08T09:11:59;99541.91;;;0.84;100.00
29315;BME280;16320;53.954;9.506;2023-03-08T09:15:05;99537.69;;;0.82;100.00
29315;BME280;16320;53.954;9.506;2023-03-08T09:18:09;99543.66;;;0.84;100.00
29315;BME280;16320;53.954;9.506;2023-03-08T09:21:14;99539.25;;;0.87;100.00
29315;BME280;16320;53.954;9.506;2023-03-08T09:24:19;99534.84;;;0.91;100.00
29315;BME280;16320;53.954;9.506;2023-03-08T09:27:24;99540.84;;;0.91;100.00
29315;BME280;16320;53.954;9.506;2023-03-08T09:30:28;99537.03;;;1.03;100.00
29315;BME280;16320;53.954;9.506;2023-03-08T09:33:33;99534.22;;;1.11;100.00
29315;BME280;16320;53.954;9.506;2023-03-08T09:36:37;99530.09;;;1.04;100.00
29315;BME280;16320;53.954;9.506;2023-03-08T09:39:45;99529.22;;;1.05;100.00
29315;BME280;16320;53.954;9.506;2023-03-08T09:42:49;99531.66;;;1.09;100.00
29315;BME280;16320;53.954;9.506;2023-03-08T09:45:55;99528.94;;;1.14;100.00
29315;BME280;16320;53.954;9.506;2023-03-08T09:49:01;99515.63;;;1.25;100.00
29315;BME280;16320;53.954;9.506;2023-03-08T09:52:30;99514.91;;;1.21;100.00
29315;BME280;16320;53.954;9.506;2023-03-08T09:55:47;99511.13;;;1.32;100.00
29315;BME280;16320;53.954;9.506;2023-03-08T09:59:01;99504.06;;;1.37;100.00
29315;BME280;16320;53.954;9.506;2023-03-08T10:02:45;99496.31;;;1.37;100.00
29315;BME280;16320;53.954;9.506;2023-03-08T10:06:03;99492.13;;;1.33;100.00
29315;BME280;16320;53.954;9.506;2023-03-08T10:16:36;99479.16;;;1.59;100.00
29315;BME280;16320;53.954;9.506;2023-03-08T10:19:56;99477.41;;;1.60;100.00
29315;BME280;16320;53.954;9.506;2023-03-08T10:23:19;99471.00;;;1.70;100.00
29315;BME280;16320;53.954;9.506;2023-03-08T10:26:26;99475.47;;;1.90;100.00
29315;BME280;16320;53.954;9.506;2023-03-08T10:29:31;99467.66;;;1.92;100.00
29315;BME280;16320;53.954;9.506;2023-03-08T10:32:46;99457.47;;;1.87;100.00
29315;BME280;16320;53.954;9.506;2023-03-08T10:36:16;99471.13;;;1.91;100.00
29315;BME280;16320;53.954;9.506;2023-03-08T10:39:21;99464.31;;;1.88;100.00
29315;BME280;16320;53.954;9.506;2023-03-08T10:42:27;99466.75;;;1.93;100.00
29315;BME280;16320;53.954;9.506;2023-03-08T10:45:32;99460.72;;;1.92;100.00
29315;BME280;16320;53.954;9.506;2023-03-08T10:48:36;99461.66;;;1.90;100.00
29315;BME280;16320;53.954;9.506;2023-03-08T10:52:20;99455.97;;;1.80;100.00
29315;BME280;16320;53.954;9.506;2023-03-08T10:55:27;99454.81;;;1.89;100.00
29315;BME280;16320;53.954;9.506;2023-03-08T10:58:38;99444.97;;;1.98;100.00
29315;BME280;16320;53.954;9.506;2023-03-08T11:01:55;99438.53;;;1.85;100.00
29315;BME280;16320;53.954;9.506;2023-03-08T11:05:22;99440.16;;;1.88;100.00
29315;BME280;16320;53.954;9.506;2023-03-08T11:11:41;99424.16;;;2.01;100.00
29315;BME280;16320;53.954;9.506;2023-03-08T11:14:46;99425.19;;;1.96;100.00
29315;BME280;16320;53.954;9.506;2023-03-08T11:18:18;99425.31;;;1.93;100.00
29315;BME280;16320;53.954;9.506;2023-03-08T11:35:31;99407.75;;;2.01;100.00
29315;BME280;16320;53.954;9.506;2023-03-08T11:38:38;99413.94;;;1.97;100.00
29315;BME280;16320;53.954;9.506;2023-03-08T11:42:03;99423.22;;;2.03;100.00
29315;BME280;16320;53.954;9.506;2023-03-08T11:45:23;99421.28;;;2.31;100.00
29315;BME280;16320;53.954;9.506;2023-03-08T11:49:00;99418.25;;;2.64;100.00
29315;BME280;16320;53.954;9.506;2023-03-08T11:56:45;99402.56;;;2.89;100.00
29315;BME280;16320;53.954;9.506;2023-03-08T11:59:55;99384.59;;;3.26;100.00
29315;BME280;16320;53.954;9.506;2023-03-08T12:03:10;99365.66;;;3.24;100.00
29315;BME280;16320;53.954;9.506;2023-03-08T12:13:38;99369.88;;;3.26;100.00
29315;BME280;16320;53.954;9.506;2023-03-08T12:16:50;99367.81;;;3.54;100.00
29315;BME280;16320;53.954;9.506;2023-03-08T12:19:56;99360.72;;;3.57;100.00
29315;BME280;16320;53.954;9.506;2023-03-08T12:23:22;99361.16;;;3.67;100.00
29315;BME280;16320;53.954;9.506;2023-03-08T12:26:38;99348.63;;;3.58;100.00
29315;BME280;16320;53.954;9.506;2023-03-08T12:33:13;99329.78;;;3.72;100.00
29315;BME280;16320;53.954;9.506;2023-03-08T12:36:18;99323.78;;;3.71;100.00
29315;BME280;16320;53.954;9.506;2023-03-08T12:39:30;99307.47;;;3.48;100.00
29315;BME280;16320;53.954;9.506;2023-03-08T12:42:37;99323.34;;;3.61;100.00
29315;BME280;16320;53.954;9.506;2023-03-08T12:46:08;99320.66;;;4.01;100.00
29315;BME280;16320;53.954;9.506;2023-03-08T12:49:40;99310.78;;;4.27;100.00
29315;BME280;16320;53.954;9.506;2023-03-08T12:52:45;99296.38;;;4.02;100.00
29315;BME280;16320;53.954;9.506;2023-03-08T12:56:34;99281.13;;;3.58;100.00
29315;BME280;16320;53.954;9.506;2023-03-08T12:59:40;99297.88;;;3.32;100.00
29315;BME280;16320;53.954;9.506;2023-03-08T13:02:45;99304.22;;;3.24;100.00
29315;BME280;16320;53.954;9.506;2023-03-08T13:05:51;99316.53;;;3.40;100.00
29315;BME280;16320;53.954;9.506;2023-03-08T13:19:29;99334.69;;;3.59;100.00
29315;BME280;16320;53.954;9.506;2023-03-08T13:29:18;99335.22;;;3.27;100.00
29315;BME280;16320;53.954;9.506;2023-03-08T13:32:23;99341.69;;;3.19;100.00
29315;BME280;16320;53.954;9.506;2023-03-08T13:35:28;99336.00;;;3.29;100.00
29315;BME280;16320;53.954;9.506;2023-03-08T13:38:37;99328.06;;;3.14;100.00
29315;BME280;16320;53.954;9.506;2023-03-08T13:41:44;99338.69;;;3.07;100.00
29315;BME280;16320;53.954;9.506;2023-03-08T13:44:53;99346.47;;;3.07;100.00
29315;BME280;16320;53.954;9.506;2023-03-08T13:48:10;99350.22;;;3.21;100.00
29315;BME280;16320;53.954;9.506;2023-03-08T13:51:16;99352.06;;;3.19;100.00
29315;BME280;16320;53.954;9.506;2023-03-08T13:54:34;99353.63;;;3.42;100.00
29315;BME280;16320;53.954;9.506;2023-03-08T13:57:39;99343.19;;;3.43;100.00
29315;BME280;16320;53.954;9.506;2023-03-08T14:00:45;99339.91;;;3.40;100.00
29315;BME280;16320;53.954;9.506;2023-03-08T14:04:10;99332.59;;;3.48;100.00
29315;BME280;16320;53.954;9.506;2023-03-08T14:07:26;99335.53;;;3.40;100.00
29315;BME280;16320;53.954;9.506;2023-03-08T14:11:12;99343.84;;;3.28;100.00
29315;BME280;16320;53.954;9.506;2023-03-08T14:14:35;99341.06;;;3.33;100.00
29315;BME280;16320;53.954;9.506;2023-03-08T14:17:40;99342.44;;;3.21;100.00
29315;BME280;16320;53.954;9.506;2023-03-08T14:20:45;99335.56;;;3.20;100.00
29315;BME280;16320;53.954;9.506;2023-03-08T14:24:01;99323.84;;;3.11;100.00
29315;BME280;16320;53.954;9.506;2023-03-08T14:30:26;99306.19;;;2.99;100.00
29315;BME280;16320;53.954;9.506;2023-03-08T14:33:31;99315.69;;;3.00;100.00
29315;BME280;16320;53.954;9.506;2023-03-08T14:36:58;99305.75;;;3.09;100.00
29315;BME280;16320;53.954;9.506;2023-03-08T14:43:23;99307.16;;;3.17;100.00
29315;BME280;16320;53.954;9.506;2023-03-08T14:46:29;99303.84;;;3.13;100.00
29315;BME280;16320;53.954;9.506;2023-03-08T14:49:35;99311.19;;;3.24;100.00
29315;BME280;16320;53.954;9.506;2023-03-08T14:52:46;99297.81;;;3.33;100.00
29315;BME280;16320;53.954;9.506;2023-03-08T14:55:51;99285.94;;;3.27;100.00
29315;BME280;16320;53.954;9.506;2023-03-08T14:59:00;99286.75;;;3.28;100.00
29315;BME280;16320;53.954;9.506;2023-03-08T15:02:10;99283.13;;;3.32;100.00
29315;BME280;16320;53.954;9.506;2023-03-08T15:05:18;99277.31;;;3.27;100.00
29315;BME280;16320;53.954;9.506;2023-03-08T15:08:32;99283.06;;;3.34;100.00
29315;BME280;16320;53.954;9.506;2023-03-08T15:11:37;99283.06;;;3.34;100.00
29315;BME280;16320;53.954;9.506;2023-03-08T15:14:41;99281.94;;;3.39;100.00
29315;BME280;16320;53.954;9.506;2023-03-08T15:17:46;99288.94;;;3.37;100.00
29315;BME280;16320;53.954;9.506;2023-03-08T15:20:51;99289.34;;;3.28;100.00
29315;BME280;16320;53.954;9.506;2023-03-08T15:23:56;99294.69;;;3.25;100.00
29315;BME280;16320;53.954;9.506;2023-03-08T15:27:01;99303.41;;;3.24;100.00
29315;BME280;16320;53.954;9.506;2023-03-08T15:30:08;99290.31;;;3.06;100.00
29315;BME280;16320;53.954;9.506;2023-03-08T15:33:16;99293.88;;;3.04;100.00
29315;BME280;16320;53.954;9.506;2023-03-08T15:36:21;99300.06;;;3.01;100.00
29315;BME280;16320;53.954;9.506;2023-03-08T15:39:25;99312.38;;;2.96;100.00
29315;BME280;16320;53.954;9.506;2023-03-08T15:42:29;99314.09;;;2.96;100.00
29315;BME280;16320;53.954;9.506;2023-03-08T15:45:34;99305.88;;;2.86;100.00
29315;BME280;16320;53.954;9.506;2023-03-08T15:48:40;99314.66;;;2.83;100.00
29315;BME280;16320;53.954;9.506;2023-03-08T15:51:45;99309.47;;;2.83;100.00
29315;BME280;16320;53.954;9.506;2023-03-08T15:54:49;99312.44;;;2.74;100.00
29315;BME280;16320;53.954;9.506;2023-03-08T15:57:54;99321.28;;;2.70;100.00
29315;BME280;16320;53.954;9.506;2023-03-08T16:00:58;99311.47;;;2.56;100.00
29315;BME280;16320;53.954;9.506;2023-03-08T16:04:03;99313.88;;;2.61;100.00
29315;BME280;16320;53.954;9.506;2023-03-08T16:07:07;99310.50;;;2.59;100.00
29315;BME280;16320;53.954;9.506;2023-03-08T16:10:13;99305.44;;;2.55;100.00
29315;BME280;16320;53.954;9.506;2023-03-08T16:13:18;99305.56;;;2.52;100.00
29315;BME280;16320;53.954;9.506;2023-03-08T16:16:25;99304.00;;;2.48;100.00
29315;BME280;16320;53.954;9.506;2023-03-08T16:19:47;99299.44;;;2.33;100.00
29315;BME280;16320;53.954;9.506;2023-03-08T16:22:52;99301.44;;;2.26;100.00
29315;BME280;16320;53.954;9.506;2023-03-08T16:26:05;99295.00;;;2.14;100.00
29315;BME280;16320;53.954;9.506;2023-03-08T16:29:20;99305.69;;;2.07;100.00
29315;BME280;16320;53.954;9.506;2023-03-08T16:32:25;99308.50;;;2.00;100.00
29315;BME280;16320;53.954;9.506;2023-03-08T16:35:30;99311.44;;;1.91;100.00
29315;BME280;16320;53.954;9.506;2023-03-08T16:38:34;99309.06;;;1.85;100.00
29315;BME280;16320;53.954;9.506;2023-03-08T16:41:39;99316.28;;;1.77;100.00
29315;BME280;16320;53.954;9.506;2023-03-08T16:44:53;99322.63;;;1.70;100.00
29315;BME280;16320;53.954;9.506;2023-03-08T16:47:58;99324.59;;;1.63;100.00
29315;BME280;16320;53.954;9.506;2023-03-08T16:51:02;99317.94;;;1.56;100.00
29315;BME280;16320;53.954;9.506;2023-03-08T16:54:08;99327.69;;;1.49;100.00
29315;BME280;16320;53.954;9.506;2023-03-08T16:57:14;99326.13;;;1.45;100.00
29315;BME280;16320;53.954;9.506;2023-03-08T17:00:23;99336.69;;;1.39;100.00
29315;BME280;16320;53.954;9.506;2023-03-08T17:03:27;99326.59;;;1.31;100.00
29315;BME280;16320;53.954;9.506;2023-03-08T17:06:32;99331.84;;;1.30;100.00
29315;BME280;16320;53.954;9.506;2023-03-08T17:09:38;99333.84;;;1.21;100.00
29315;BME280;16320;53.954;9.506;2023-03-08T17:12:42;99348.63;;;1.18;100.00
29315;BME280;16320;53.954;9.506;2023-03-08T17:15:47;99343.06;;;1.05;100.00
29315;BME280;16320;53.954;9.506;2023-03-08T17:18:55;99337.16;;;1.01;100.00
29315;BME280;16320;53.954;9.506;2023-03-08T17:22:00;99342.69;;;0.90;100.00
29315;BME280;16320;53.954;9.506;2023-03-08T17:25:05;99351.41;;;0.88;100.00
29315;BME280;16320;53.954;9.506;2023-03-08T17:28:11;99360.97;;;0.84;100.00
29315;BME280;16320;53.954;9.506;2023-03-08T17:31:18;99350.53;;;0.87;100.00
29315;BME280;16320;53.954;9.506;2023-03-08T17:34:24;99355.03;;;0.82;100.00
29315;BME280;16320;53.954;9.506;2023-03-08T17:37:29;99351.59;;;0.82;100.00
29315;BME280;16320;53.954;9.506;2023-03-08T17:40:33;99361.31;;;0.75;100.00